createdAt,value
2023-12-14T00:01:37.215Z,91.65
2023-12-14T00:04:51.736Z,86.63
2023-12-14T00:08:04.305Z,79.83
2023-12-14T00:11:17.873Z,81.25
2023-12-14T00:14:30.284Z,74.53
2023-12-14T00:17:42.904Z,68.58
2023-12-14T00:20:55.575Z,80.45
2023-12-14T00:24:09.161Z,80.13
2023-12-14T00:27:21.922Z,93.90
2023-12-14T00:30:34.098Z,86.65
2023-12-14T00:33:46.762Z,101.18
2023-12-14T00:36:59.489Z,92.83
2023-12-14T00:40:13.897Z,87.93
2023-12-14T00:43:26.153Z,86.78
2023-12-14T00:46:38.492Z,88.93
2023-12-14T00:49:50.947Z,83.23
2023-12-14T00:53:03.163Z,80.18
2023-12-14T00:56:18.613Z,83.65
2023-12-14T00:59:32.064Z,97.53
2023-12-14T01:02:47.239Z,84.63
2023-12-14T01:05:59.643Z,81.93
2023-12-14T01:09:12.260Z,86.33
2023-12-14T01:12:24.612Z,82.23
2023-12-14T01:15:39.120Z,82.60
2023-12-14T01:18:51.584Z,86.43
2023-12-14T01:22:06.059Z,76.28
2023-12-14T01:25:19.312Z,78.40
2023-12-14T01:28:31.735Z,77.10
2023-12-14T01:31:44.286Z,76.65
2023-12-14T01:34:56.571Z,70.83
2023-12-14T01:38:08.985Z,72.15
2023-12-14T01:41:21.543Z,68.30
2023-12-14T01:44:36.262Z,64.38
2023-12-14T01:47:48.967Z,68.18
2023-12-14T01:51:01.310Z,70.00
2023-12-14T01:54:13.566Z,65.93
2023-12-14T01:57:25.821Z,64.55
2023-12-14T02:00:45.240Z,66.58
2023-12-14T02:04:00.541Z,70.45
2023-12-14T02:07:13.211Z,63.00
2023-12-14T02:10:25.634Z,68.00
2023-12-14T02:13:40.451Z,59.88
2023-12-14T02:16:53.003Z,70.98
2023-12-14T02:20:05.505Z,72.30
2023-12-14T02:23:17.994Z,69.25
2023-12-14T02:26:30.565Z,67.43
2023-12-14T02:29:42.968Z,73.70
2023-12-14T02:32:55.227Z,67.50
2023-12-14T02:36:08.547Z,66.55
2023-12-14T02:39:20.967Z,63.05
2023-12-14T02:42:33.726Z,65.30
2023-12-14T02:45:46.304Z,66.20
2023-12-14T02:49:01.232Z,70.68
2023-12-14T02:52:16.460Z,65.75
2023-12-14T02:55:28.463Z,71.03
2023-12-14T02:58:40.947Z,70.45
2023-12-14T03:01:53.251Z,63.63
2023-12-14T03:05:06.851Z,68.53
2023-12-14T03:08:20.018Z,69.40
2023-12-14T03:11:32.751Z,68.88
2023-12-14T03:14:45.723Z,66.60
2023-12-14T03:17:58.503Z,68.28
2023-12-14T03:21:13.663Z,66.40
2023-12-14T03:24:25.981Z,60.03
2023-12-14T03:27:38.111Z,62.50
2023-12-14T03:30:52.481Z,62.95
2023-12-14T03:34:06.959Z,57.20
2023-12-14T03:37:19.437Z,56.05
2023-12-14T03:40:34.039Z,56.28
2023-12-14T03:43:46.383Z,51.70
2023-12-14T03:46:59.567Z,45.58
2023-12-14T03:50:16.501Z,48.20
2023-12-14T03:53:28.734Z,50.55
2023-12-14T03:56:41.300Z,46.38
2023-12-14T03:59:55.681Z,49.88
2023-12-14T04:03:08.004Z,50.58
2023-12-14T04:06:21.817Z,44.95
2023-12-14T04:09:33.804Z,47.35
2023-12-14T04:12:46.943Z,46.73
2023-12-14T04:15:59.321Z,45.30
2023-12-14T04:19:14.097Z,45.48
2023-12-14T04:22:28.769Z,50.60
2023-12-14T04:25:41.286Z,50.45
2023-12-14T04:28:53.809Z,45.45
2023-12-14T04:32:06.365Z,45.53
2023-12-14T04:35:19.042Z,42.03
2023-12-14T04:38:31.472Z,49.50
2023-12-14T04:41:44.146Z,46.78
2023-12-14T04:44:56.721Z,44.93
2023-12-14T04:48:09.671Z,57.73
2023-12-14T04:51:24.509Z,50.73
2023-12-14T04:54:38.880Z,47.85
2023-12-14T04:57:52.063Z,42.43
2023-12-14T05:01:04.749Z,42.18
2023-12-14T05:04:17.355Z,44.75
2023-12-14T05:07:31.468Z,40.73
2023-12-14T05:10:43.904Z,40.70
2023-12-14T05:13:56.489Z,42.23
2023-12-14T05:17:09.094Z,44.58
2023-12-14T05:20:22.238Z,40.75
2023-12-14T05:23:34.962Z,39.78
2023-12-14T05:26:47.703Z,37.73
2023-12-14T05:30:00.231Z,38.08
2023-12-14T05:33:13.566Z,36.63
2023-12-14T05:36:26.209Z,41.78
2023-12-14T05:39:38.667Z,40.03
2023-12-14T05:42:53.386Z,39.78
2023-12-14T05:46:06.291Z,39.58
2023-12-14T05:49:18.794Z,45.50
2023-12-14T05:52:31.466Z,42.50
2023-12-14T05:55:47.656Z,40.45
2023-12-14T05:59:00.721Z,40.70
2023-12-14T06:02:13.876Z,37.25
2023-12-14T06:05:26.521Z,38.25
2023-12-14T06:08:39.113Z,60.15
2023-12-14T06:11:52.469Z,48.23
2023-12-14T06:15:05.792Z,46.90
2023-12-14T06:18:21.211Z,41.48
2023-12-14T06:21:35.001Z,41.93
2023-12-14T06:24:49.410Z,39.83
2023-12-14T06:28:01.710Z,43.68
2023-12-14T06:31:19.748Z,38.20
2023-12-14T06:34:31.898Z,37.15
2023-12-14T06:37:43.839Z,39.48
2023-12-14T07:29:40.000Z,36.38
2023-12-14T09:49:05.457Z,44.40
2023-12-14T10:02:59.424Z,51.30
2023-12-14T10:11:44.851Z,41.63
2023-12-14T10:15:47.946Z,42.88
2023-12-14T10:24:40.118Z,41.03
2023-12-14T10:28:53.630Z,42.38
2023-12-14T10:37:37.744Z,42.33
2023-12-14T10:41:55.084Z,42.90
2023-12-14T10:46:22.604Z,59.07
2023-12-14T10:54:28.468Z,44.00
2023-12-14T10:58:32.618Z,45.13
2023-12-14T11:02:39.801Z,36.58
2023-12-14T11:07:22.517Z,44.68
2023-12-14T11:11:31.936Z,89.67
2023-12-14T11:20:00.424Z,39.45
2023-12-14T11:23:46.622Z,33.13
2023-12-14T11:27:43.285Z,34.90
2023-12-14T11:41:05.969Z,29.60
2023-12-14T11:45:10.872Z,27.08
2023-12-14T11:49:34.087Z,30.95
2023-12-14T12:01:42.700Z,28.05
2023-12-14T12:05:20.299Z,31.60
2023-12-14T12:09:18.164Z,31.70
2023-12-14T12:13:26.133Z,31.83
2023-12-14T12:16:54.749Z,31.13
2023-12-14T12:20:49.437Z,33.08
2023-12-14T12:25:15.471Z,32.60
2023-12-14T12:29:10.276Z,28.25
2023-12-14T12:33:06.455Z,28.80
2023-12-14T12:37:43.102Z,34.20
2023-12-14T12:46:00.138Z,30.55
2023-12-14T12:59:01.620Z,31.93
2023-12-14T13:03:08.969Z,30.00
2023-12-14T13:07:22.674Z,35.08
2023-12-14T13:11:45.937Z,28.88
2023-12-14T13:29:07.255Z,29.23
2023-12-14T13:33:29.268Z,34.75
2023-12-14T13:42:04.781Z,30.98
2023-12-14T13:45:45.014Z,25.28
2023-12-14T13:52:36.597Z,29.40
2023-12-14T14:06:04.039Z,30.18
2023-12-14T14:10:22.384Z,29.45
2023-12-14T14:14:25.687Z,30.38
2023-12-14T14:18:40.803Z,30.73
2023-12-14T14:22:46.365Z,28.23
2023-12-14T14:27:47.234Z,31.70
2023-12-14T14:39:40.736Z,40.00
2023-12-14T14:44:38.849Z,39.45
2023-12-14T14:49:32.397Z,37.80
2023-12-14T14:53:58.797Z,44.20
2023-12-14T15:03:01.330Z,49.60
2023-12-14T15:07:01.320Z,51.23
2023-12-14T15:11:28.090Z,49.30
2023-12-14T15:20:36.833Z,52.28
2023-12-14T15:24:47.362Z,49.85
2023-12-14T15:29:11.361Z,56.55
2023-12-14T15:32:58.192Z,57.55
2023-12-14T15:37:03.974Z,59.70
2023-12-14T15:41:01.835Z,55.18
2023-12-14T15:45:10.215Z,56.60
2023-12-14T15:49:14.391Z,56.00
2023-12-14T15:52:57.597Z,62.13
2023-12-14T15:59:57.888Z,57.48
2023-12-14T16:03:50.924Z,57.65
2023-12-14T16:07:56.547Z,54.20
2023-12-14T16:18:16.370Z,52.25
2023-12-14T16:22:53.638Z,56.20
2023-12-14T16:27:08.605Z,52.75
2023-12-14T16:40:54.434Z,46.70
2023-12-14T16:50:19.033Z,47.53
2023-12-14T20:56:35.970Z,38.98
2023-12-14T20:59:55.818Z,38.78
2023-12-14T21:03:11.557Z,38.28
2023-12-14T21:06:29.283Z,37.95
2023-12-14T21:09:42.927Z,35.98
2023-12-14T21:12:58.289Z,37.00
2023-12-14T21:16:12.114Z,35.10
2023-12-14T21:19:27.428Z,36.73
2023-12-14T21:22:42.403Z,34.28
2023-12-14T21:25:59.252Z,35.78
2023-12-14T21:29:12.006Z,38.25
2023-12-14T21:32:27.542Z,37.38
2023-12-14T21:35:42.622Z,36.55
2023-12-14T21:38:55.202Z,34.75
2023-12-14T21:42:10.742Z,34.23
2023-12-14T21:45:23.452Z,32.70
2023-12-14T21:48:36.508Z,30.45
2023-12-14T21:51:51.506Z,33.78
2023-12-14T21:55:04.167Z,30.83
2023-12-14T21:58:16.848Z,30.98
2023-12-14T22:01:31.643Z,31.88
2023-12-14T22:04:45.862Z,33.43
2023-12-14T22:07:58.779Z,31.48
2023-12-14T22:11:13.826Z,25.98
2023-12-14T22:14:28.847Z,24.65
2023-12-14T22:17:42.282Z,22.45
2023-12-14T22:20:57.377Z,22.95
2023-12-14T22:24:13.275Z,23.38
2023-12-14T22:27:28.442Z,21.33
2023-12-14T22:30:41.756Z,23.58
2023-12-14T22:33:54.250Z,21.40
2023-12-14T22:37:06.834Z,22.20
2023-12-14T22:40:21.258Z,22.65
2023-12-14T22:43:34.926Z,25.15
2023-12-14T22:46:49.393Z,26.53
2023-12-14T22:50:01.977Z,25.93
2023-12-14T22:53:19.609Z,26.75
2023-12-14T22:56:34.644Z,25.15
2023-12-14T22:59:47.340Z,25.15
2023-12-14T23:03:00.930Z,26.15
2023-12-14T23:06:15.025Z,31.98
2023-12-14T23:09:27.809Z,26.45
2023-12-14T23:12:42.715Z,24.93
2023-12-14T23:15:55.193Z,25.65
2023-12-14T23:19:07.576Z,26.55
2023-12-14T23:22:23.921Z,26.55
2023-12-14T23:25:36.442Z,29.38
2023-12-14T23:28:49.036Z,25.83
2023-12-14T23:32:01.590Z,28.90
2023-12-14T23:35:16.032Z,27.80
2023-12-14T23:38:28.621Z,25.75
2023-12-14T23:41:43.380Z,24.65
2023-12-14T23:44:56.032Z,29.00
2023-12-14T23:48:09.096Z,24.73
2023-12-14T23:51:22.250Z,24.15
2023-12-14T23:54:36.253Z,23.40
2023-12-14T23:57:48.885Z,24.45
